Time;durP1;ratioP1;P1;durP2;ratioP2;P2;SDS_P1;SDS_P2;PMS_P1;PMS_P2;Temp;Humidity;BMP_temperature;BMP_pressure;BME280_temperature;BME280_humidity;BME280_pressure;Samples;Min_cycle;Max_cycle;Signal;HPM_P1;HPM_P2
2021/05/02 00:00:31;;;;;;;24.80;18.10;;;13.80;61.00;;;;;;5042331;28;20585;-40
2021/05/02 00:02:58;;;;;;;20.47;18.10;;;13.90;60.60;;;;;;5043400;28;20451;-40
2021/05/02 00:05:26;;;;;;;22.47;19.40;;;13.80;60.80;;;;;;5043118;28;20496;-40
2021/05/02 00:07:52;;;;;;;22.37;18.50;;;13.80;60.20;;;;;;5042210;28;20853;-40
2021/05/02 00:10:19;;;;;;;19.73;17.57;;;13.70;60.50;;;;;;5043509;28;20569;-42
2021/05/02 00:12:46;;;;;;;25.77;19.47;;;13.60;60.40;;;;;;5043012;28;20858;-40
2021/05/02 00:15:15;;;;;;;22.63;19.40;;;13.80;60.50;;;;;;5040952;28;20562;-41
2021/05/02 00:17:42;;;;;;;20.03;17.83;;;13.80;60.10;;;;;;5040992;28;21491;-41
2021/05/02 00:20:09;;;;;;;22.87;18.90;;;13.70;60.50;;;;;;5043611;28;20479;-40
2021/05/02 00:22:41;;;;;;;24.50;19.37;;;13.70;60.50;;;;;;5037931;28;20972;-40
2021/05/02 00:25:08;;;;;;;23.00;20.40;;;13.90;60.60;;;;;;5044227;28;20443;-40
2021/05/02 00:27:34;;;;;;;23.47;19.77;;;13.90;59.80;;;;;;5037628;28;20455;-41
2021/05/02 00:30:02;;;;;;;23.23;20.53;;;14.00;60.10;;;;;;5040485;28;20505;-41
2021/05/02 00:32:28;;;;;;;26.23;21.30;;;14.10;60.30;;;;;;5042287;28;21225;-40
2021/05/02 00:34:57;;;;;;;25.03;19.70;;;14.10;59.80;;;;;;5044801;28;20435;-41
2021/05/02 00:37:22;;;;;;;22.93;19.60;;;14.20;59.70;;;;;;5046121;28;20784;-41
2021/05/02 00:39:48;;;;;;;28.03;21.47;;;14.20;60.10;;;;;;5045845;28;20464;-41
2021/05/02 00:42:21;;;;;;;23.80;21.00;;;14.40;59.90;;;;;;5043089;28;20519;-41
2021/05/02 00:44:49;;;;;;;27.00;21.70;;;14.30;59.50;;;;;;5043150;28;20748;-40
2021/05/02 00:47:32;;;;;;;22.37;19.53;;;14.20;59.60;;;;;;5042813;28;20439;-41
2021/05/02 00:50:15;;;;;;;28.37;21.07;;;14.10;59.60;;;;;;5041295;28;20870;-41
2021/05/02 00:52:47;;;;;;;22.10;18.83;;;14.00;59.50;;;;;;5043013;28;20790;-40
2021/05/02 00:55:16;;;;;;;27.67;19.53;;;14.00;59.60;;;;;;5039924;28;20489;-40
2021/05/02 00:57:50;;;;;;;22.77;18.60;;;14.00;59.30;;;;;;5040416;28;20489;-41
2021/05/02 01:00:19;;;;;;;17.63;15.80;;;13.80;58.70;;;;;;5042182;28;20466;-41
2021/05/02 01:02:47;;;;;;;19.10;17.10;;;13.50;59.10;;;;;;5043446;28;21463;-40
2021/05/02 01:05:13;;;;;;;19.87;17.80;;;13.20;59.30;;;;;;5043856;28;20446;-40
2021/05/02 01:07:41;;;;;;;20.03;17.80;;;13.20;59.60;;;;;;5040069;28;20454;-40
2021/05/02 01:10:16;;;;;;;19.07;17.07;;;13.30;59.50;;;;;;5041824;28;20479;-40
2021/05/02 01:12:53;;;;;;;19.77;16.73;;;13.40;59.80;;;;;;5036451;28;20477;-40
2021/05/02 01:15:24;;;;;;;19.37;17.47;;;13.40;59.50;;;;;;5043243;28;20498;-40
2021/05/02 01:17:55;;;;;;;18.40;16.40;;;13.40;59.50;;;;;;5042010;28;20438;-40
2021/05/02 01:20:20;;;;;;;20.20;17.93;;;13.60;59.40;;;;;;5041897;28;20478;-41
2021/05/02 01:22:50;;;;;;;18.93;16.93;;;13.70;59.10;;;;;;5043744;28;20498;-40
2021/05/02 01:25:16;;;;;;;20.37;18.20;;;13.70;58.90;;;;;;5043287;28;20193;-41
2021/05/02 01:27:42;;;;;;;21.60;17.47;;;13.80;58.80;;;;;;5042637;28;20449;-40
2021/05/02 01:30:10;;;;;;;18.43;16.60;;;13.80;58.80;;;;;;5039742;28;20484;-40
2021/05/02 01:32:37;;;;;;;21.10;18.80;;;13.70;59.30;;;;;;5040822;28;20443;-41
2021/05/02 01:35:05;;;;;;;22.00;19.07;;;13.70;59.20;;;;;;5041019;28;20560;-40
2021/05/02 01:37:31;;;;;;;18.50;16.57;;;13.50;59.50;;;;;;5044053;28;20466;-40
2021/05/02 01:39:58;;;;;;;21.70;19.37;;;13.50;59.70;;;;;;5046668;28;20458;-40
2021/05/02 01:42:23;;;;;;;23.17;19.67;;;13.50;60.00;;;;;;5043096;28;20447;-40
2021/05/02 01:44:49;;;;;;;24.50;19.40;;;13.60;60.00;;;;;;5042012;28;20439;-40
2021/05/02 01:47:21;;;;;;;22.30;20.00;;;13.40;59.80;;;;;;5037080;28;20200;-40
2021/05/02 01:50:08;;;;;;;23.20;19.70;;;13.50;60.10;;;;;;5044422;28;20908;-40
2021/05/02 01:52:39;;;;;;;22.00;18.77;;;13.50;59.60;;;;;;5042029;28;20430;-40
2021/05/02 01:55:05;;;;;;;21.07;18.97;;;13.30;60.00;;;;;;5050036;28;20526;-40
2021/05/02 01:57:32;;;;;;;21.70;18.77;;;13.40;60.10;;;;;;5045215;28;20849;-40
2021/05/02 02:00:00;;;;;;;21.97;17.70;;;13.30;60.10;;;;;;5046940;28;20522;-43
2021/05/02 02:02:27;;;;;;;23.30;19.43;;;13.30;59.90;;;;;;5046214;28;20439;-40
2021/05/02 02:04:56;;;;;;;21.80;19.50;;;13.50;59.80;;;;;;5044157;28;20479;-41
2021/05/02 02:07:22;;;;;;;24.80;18.50;;;13.60;59.70;;;;;;5047822;28;20835;-41
2021/05/02 02:09:49;;;;;;;19.30;17.30;;;13.50;59.10;;;;;;5044637;28;20486;-41
2021/05/02 02:12:15;;;;;;;22.57;18.63;;;13.30;59.20;;;;;;5045350;28;20438;-40
2021/05/02 02:14:40;;;;;;;24.63;19.00;;;13.20;59.70;;;;;;5047718;28;20441;-41
2021/05/02 02:17:08;;;;;;;22.37;18.77;;;13.30;60.00;;;;;;5045830;28;20192;-40
2021/05/02 02:19:34;;;;;;;21.13;18.83;;;13.40;59.70;;;;;;5043318;28;20197;-40
2021/05/02 02:22:00;;;;;;;21.27;18.53;;;13.50;59.40;;;;;;5044986;28;20534;-40
2021/05/02 02:24:58;;;;;;;21.07;18.77;;;13.60;59.40;;;;;;5045209;28;20553;-41
2021/05/02 02:27:28;;;;;;;20.70;17.47;;;13.60;58.90;;;;;;5042347;28;20215;-40
2021/05/02 02:29:58;;;;;;;21.80;18.23;;;13.60;59.40;;;;;;5045665;28;20633;-40
2021/05/02 02:32:26;;;;;;;21.40;17.97;;;13.60;59.40;;;;;;5044083;28;20777;-41
2021/05/02 02:34:55;;;;;;;21.47;18.63;;;13.60;59.50;;;;;;5044628;28;20438;-41
2021/05/02 02:37:23;;;;;;;22.33;19.00;;;13.50;59.30;;;;;;5043380;28;20574;-42
2021/05/02 02:39:56;;;;;;;22.43;20.07;;;13.70;59.60;;;;;;5043404;28;20476;-40
2021/05/02 02:42:27;;;;;;;21.40;18.60;;;14.00;59.30;;;;;;5050346;28;20981;-40
2021/05/02 02:45:02;;;;;;;21.67;19.43;;;14.20;58.90;;;;;;5047211;28;20442;-41
2021/05/02 02:47:41;;;;;;;21.93;19.63;;;14.20;58.30;;;;;;5046575;28;20435;-41
2021/05/02 02:50:10;;;;;;;21.73;18.70;;;14.20;57.80;;;;;;5041549;28;20491;-40
2021/05/02 02:53:00;;;;;;;24.70;20.67;;;14.00;58.10;;;;;;5042801;28;20435;-41
2021/05/02 02:55:26;;;;;;;26.43;20.97;;;14.00;58.50;;;;;;5046520;28;20490;-40
2021/05/02 02:57:52;;;;;;;29.70;21.83;;;13.70;58.90;;;;;;5044026;28;20795;-41
2021/05/02 03:00:23;;;;;;;25.67;21.43;;;13.70;58.90;;;;;;5043297;28;20439;-41
2021/05/02 03:03:11;;;;;;;25.20;21.33;;;13.60;59.20;;;;;;5041110;28;20597;-40
2021/05/02 03:05:39;;;;;;;26.70;23.83;;;13.50;59.70;;;;;;5050376;28;20446;-40
2021/05/02 03:08:07;;;;;;;26.87;22.17;;;13.50;59.60;;;;;;5043741;28;20525;-40
2021/05/02 03:10:34;;;;;;;27.00;23.60;;;13.50;59.70;;;;;;5049794;28;20544;-40
2021/05/02 03:13:01;;;;;;;28.20;23.43;;;13.50;59.40;;;;;;5043134;28;20440;-42
2021/05/02 03:15:28;;;;;;;25.70;21.33;;;13.50;59.30;;;;;;5048862;28;20584;-42
2021/05/02 03:18:04;;;;;;;30.10;22.77;;;13.50;59.40;;;;;;5043338;28;20478;-41
2021/05/02 03:20:45;;;;;;;28.17;24.00;;;13.20;59.80;;;;;;5044235;28;20454;-41
2021/05/02 03:23:18;;;;;;;28.83;23.40;;;13.10;60.10;;;;;;5047990;28;20446;-41
2021/05/02 03:25:47;;;;;;;30.53;23.90;;;13.20;60.00;;;;;;5048582;28;21145;-41
2021/05/02 03:28:28;;;;;;;26.13;23.17;;;13.10;60.30;;;;;;5049757;28;20525;-42
2021/05/02 03:30:54;;;;;;;28.33;25.00;;;13.20;60.20;;;;;;5042087;28;20901;-41
2021/05/02 03:33:24;;;;;;;27.83;23.70;;;13.10;60.30;;;;;;5040488;28;20589;-42
2021/05/02 03:35:51;;;;;;;29.03;25.20;;;13.20;60.60;;;;;;5040477;28;20328;-41
2021/05/02 03:38:23;;;;;;;27.30;24.33;;;12.90;60.10;;;;;;5043327;28;20435;-42
2021/05/02 03:40:49;;;;;;;30.90;24.80;;;12.80;60.80;;;;;;5043040;28;20943;-42
2021/05/02 03:43:15;;;;;;;28.30;23.47;;;12.90;61.00;;;;;;5047415;28;20446;-41
2021/05/02 03:45:41;;;;;;;27.10;24.30;;;13.00;60.80;;;;;;5045742;28;20452;-42
2021/05/02 03:48:07;;;;;;;26.67;23.20;;;13.00;60.60;;;;;;5047057;28;20223;-43
2021/05/02 03:50:33;;;;;;;24.50;21.90;;;12.80;60.70;;;;;;5050171;28;20224;-42
2021/05/02 03:52:58;;;;;;;26.10;22.97;;;12.90;60.80;;;;;;5056488;28;20473;-42
2021/05/02 03:55:24;;;;;;;27.20;24.20;;;12.90;61.00;;;;;;5049459;28;20193;-41
2021/05/02 03:57:50;;;;;;;30.20;23.90;;;12.90;61.10;;;;;;5043796;28;20192;-41
2021/05/02 04:00:16;;;;;;;30.20;23.67;;;12.90;60.90;;;;;;5049019;28;20196;-41
2021/05/02 04:02:42;;;;;;;27.83;23.60;;;12.90;61.00;;;;;;5044543;28;20193;-41
2021/05/02 04:05:08;;;;;;;27.80;23.57;;;13.00;61.10;;;;;;5044909;28;20446;-41
2021/05/02 04:07:33;;;;;;;26.77;23.87;;;13.00;60.80;;;;;;5041997;28;20575;-41
2021/05/02 04:09:59;;;;;;;29.27;25.30;;;13.00;60.60;;;;;;5050278;28;20501;-42
2021/05/02 04:12:24;;;;;;;26.23;23.40;;;13.10;60.40;;;;;;5048383;28;20189;-42
2021/05/02 04:14:50;;;;;;;28.27;24.20;;;13.20;60.30;;;;;;5045010;28;20189;-41
2021/05/02 04:17:16;;;;;;;29.00;25.20;;;13.20;60.20;;;;;;5035311;28;20569;-42
2021/05/02 04:19:44;;;;;;;31.90;25.90;;;13.20;60.30;;;;;;5045498;28;20189;-41
2021/05/02 04:22:15;;;;;;;28.17;24.67;;;13.20;60.30;;;;;;5048491;28;20432;-41
2021/05/02 04:24:41;;;;;;;31.40;24.27;;;13.10;60.10;;;;;;5048522;28;20435;-42
2021/05/02 04:27:07;;;;;;;25.63;22.93;;;13.10;60.10;;;;;;5042425;28;21069;-41
2021/05/02 04:29:34;;;;;;;26.43;23.50;;;13.20;60.10;;;;;;5039526;28;20540;-42
2021/05/02 04:32:00;;;;;;;27.47;23.80;;;13.20;60.00;;;;;;5045428;28;20197;-41
2021/05/02 04:34:26;;;;;;;27.67;23.30;;;13.20;59.80;;;;;;5045630;28;20458;-42
2021/05/02 04:36:55;;;;;;;26.23;22.97;;;13.20;59.80;;;;;;5043018;28;20830;-41
2021/05/02 04:39:21;;;;;;;27.83;24.67;;;13.20;59.70;;;;;;5046718;28;20439;-41
2021/05/02 04:41:47;;;;;;;31.90;24.47;;;13.30;59.60;;;;;;5048124;28;20580;-42
2021/05/02 04:44:12;;;;;;;27.90;25.00;;;13.30;59.60;;;;;;5050071;28;20917;-41
2021/05/02 04:46:39;;;;;;;30.47;24.90;;;13.40;59.60;;;;;;5043965;28;20551;-41
2021/05/02 04:49:09;;;;;;;27.63;24.17;;;13.40;59.70;;;;;;5047007;28;20196;-42
2021/05/02 04:51:36;;;;;;;29.50;23.83;;;13.40;59.70;;;;;;5045760;28;22381;-41
2021/05/02 04:54:02;;;;;;;28.27;25.20;;;13.40;59.70;;;;;;5047858;28;20439;-42
2021/05/02 04:56:27;;;;;;;26.63;23.80;;;13.40;59.60;;;;;;5046282;28;20451;-42
2021/05/02 04:58:53;;;;;;;27.87;24.80;;;13.40;59.50;;;;;;5047020;28;20440;-42
2021/05/02 05:01:19;;;;;;;30.53;24.93;;;13.40;59.50;;;;;;5043747;28;20193;-41
2021/05/02 05:03:45;;;;;;;27.00;24.07;;;13.40;59.50;;;;;;5043924;28;20192;-42
2021/05/02 05:06:11;;;;;;;27.73;24.60;;;13.40;59.40;;;;;;5040876;28;20664;-41
2021/05/02 05:08:38;;;;;;;30.90;24.67;;;13.50;59.60;;;;;;5035298;28;20530;-43
2021/05/02 05:11:04;;;;;;;27.23;24.33;;;13.50;59.60;;;;;;5045955;28;20483;-42
2021/05/02 05:13:29;;;;;;;27.47;24.57;;;13.50;59.60;;;;;;5041987;28;20469;-42
2021/05/02 05:16:00;;;;;;;29.00;24.20;;;13.50;59.50;;;;;;5036681;28;20208;-41
2021/05/02 05:18:26;;;;;;;27.97;24.97;;;13.60;59.70;;;;;;5047478;28;20688;-41
2021/05/02 05:20:53;;;;;;;28.40;24.47;;;13.60;59.80;;;;;;5037197;28;20450;-42
2021/05/02 05:23:19;;;;;;;27.03;22.40;;;13.60;59.80;;;;;;5042455;28;20442;-42
2021/05/02 05:25:44;;;;;;;30.00;24.57;;;13.60;59.90;;;;;;5039587;28;20840;-42
2021/05/02 05:28:10;;;;;;;27.47;23.77;;;13.70;60.00;;;;;;5046835;28;20189;-41
2021/05/02 05:30:36;;;;;;;28.50;23.83;;;13.50;58.90;;;;;;5038835;28;20255;-42
2021/05/02 05:33:07;;;;;;;25.93;23.13;;;13.60;59.20;;;;;;5046808;28;20246;-41
2021/05/02 05:35:33;;;;;;;28.47;25.03;;;13.60;59.40;;;;;;5040647;28;20483;-41
2021/05/02 05:37:59;;;;;;;29.40;23.97;;;13.60;59.40;;;;;;5047615;28;20454;-41
2021/05/02 05:40:27;;;;;;;29.77;24.03;;;13.70;59.40;;;;;;5045299;28;20447;-41
2021/05/02 05:42:53;;;;;;;25.07;22.40;;;13.70;59.30;;;;;;5045779;28;21017;-40
2021/05/02 05:45:19;;;;;;;24.07;21.50;;;13.70;59.10;;;;;;5036121;28;20479;-41
2021/05/02 05:47:47;;;;;;;23.17;20.83;;;13.90;59.80;;;;;;5047161;28;20817;-41
2021/05/02 05:50:14;;;;;;;25.43;18.30;;;14.10;60.40;;;;;;5045590;28;22594;-40
2021/05/02 05:52:41;;;;;;;23.20;19.97;;;14.40;60.30;;;;;;5040196;28;20446;-41
2021/05/02 05:55:08;;;;;;;22.60;20.30;;;14.60;59.70;;;;;;5043674;28;21586;-41
2021/05/02 05:57:34;;;;;;;23.57;20.57;;;14.80;58.90;;;;;;5044201;28;20530;-41
2021/05/02 06:00:00;;;;;;;23.30;20.50;;;14.90;57.90;;;;;;5046380;28;20852;-41
2021/05/02 06:02:25;;;;;;;25.37;22.10;;;15.00;57.70;;;;;;5045363;28;20193;-41
2021/05/02 06:04:51;;;;;;;25.83;22.37;;;15.10;57.00;;;;;;5047792;28;20184;-41
2021/05/02 06:07:16;;;;;;;24.23;21.93;;;15.20;56.50;;;;;;5047364;28;20203;-41
2021/05/02 06:09:42;;;;;;;25.03;22.43;;;15.10;56.30;;;;;;5048169;28;20208;-41
2021/05/02 06:12:08;;;;;;;22.80;20.40;;;15.10;56.20;;;;;;5043273;28;20964;-41
2021/05/02 06:14:33;;;;;;;22.30;20.00;;;15.10;56.20;;;;;;5044836;28;20188;-40
2021/05/02 06:16:59;;;;;;;22.93;20.27;;;15.10;55.90;;;;;;5046249;28;20231;-41
2021/05/02 06:19:27;;;;;;;25.23;22.53;;;15.10;55.80;;;;;;5047349;28;20216;-41
2021/05/02 06:21:52;;;;;;;25.10;22.50;;;15.10;55.80;;;;;;5039340;28;20212;-41
2021/05/02 06:24:18;;;;;;;25.63;21.20;;;15.10;55.70;;;;;;5042475;28;20443;-41
2021/05/02 06:26:43;;;;;;;24.50;21.57;;;15.10;55.50;;;;;;5039863;28;20294;-41
2021/05/02 06:29:09;;;;;;;22.97;20.57;;;15.10;55.30;;;;;;5041840;28;20200;-41
2021/05/02 06:31:35;;;;;;;24.80;22.23;;;15.20;55.70;;;;;;5042048;28;21058;-41
2021/05/02 06:34:01;;;;;;;23.30;20.70;;;15.20;55.20;;;;;;5048269;28;20299;-40
2021/05/02 06:36:26;;;;;;;22.27;19.90;;;15.10;55.00;;;;;;5047900;28;20256;-41
2021/05/02 06:38:52;;;;;;;23.27;20.63;;;15.00;54.40;;;;;;5050397;28;20196;-41
2021/05/02 06:41:17;;;;;;;23.07;20.70;;;15.00;54.50;;;;;;5050295;28;20274;-42
2021/05/02 06:43:43;;;;;;;22.30;18.50;;;15.00;54.70;;;;;;5042710;28;20204;-41
2021/05/02 06:46:26;;;;;;;21.83;19.53;;;14.80;54.20;;;;;;5046382;28;20276;-41
2021/05/02 06:48:53;;;;;;;20.57;18.57;;;14.80;54.10;;;;;;5043801;28;20586;-41
2021/05/02 06:51:18;;;;;;;21.67;19.07;;;14.90;54.20;;;;;;5051483;28;20482;-41
2021/05/02 06:53:44;;;;;;;22.90;20.50;;;14.90;54.20;;;;;;5053817;28;20571;-41
2021/05/02 06:56:09;;;;;;;22.57;20.13;;;14.90;54.10;;;;;;5044871;28;20193;-41
2021/05/02 06:58:35;;;;;;;23.00;20.40;;;14.90;54.30;;;;;;5051428;28;20308;-41
2021/05/02 07:01:00;;;;;;;21.67;19.47;;;14.90;54.30;;;;;;5047271;28;20197;-41
2021/05/02 07:03:26;;;;;;;20.70;18.50;;;15.00;54.10;;;;;;5049621;28;20193;-41
2021/05/02 07:05:53;;;;;;;21.40;19.20;;;15.00;54.30;;;;;;5039273;28;20197;-41
2021/05/02 07:08:19;;;;;;;21.70;19.60;;;15.00;54.40;;;;;;5033206;28;20280;-41
2021/05/02 07:10:44;;;;;;;23.30;20.63;;;14.80;55.00;;;;;;5046353;28;20490;-41
2021/05/02 07:13:10;;;;;;;21.37;19.07;;;14.90;54.00;;;;;;5044705;28;20423;-42
2021/05/02 07:15:36;;;;;;;20.73;18.40;;;14.90;53.90;;;;;;5044421;28;20205;-41
2021/05/02 07:18:01;;;;;;;20.93;18.67;;;14.90;53.90;;;;;;5044615;28;20193;-41
2021/05/02 07:20:27;;;;;;;21.57;19.37;;;14.90;53.60;;;;;;5033902;28;20276;-40
2021/05/02 07:22:54;;;;;;;20.60;18.60;;;15.00;53.80;;;;;;5033556;28;20251;-41
2021/05/02 07:25:23;;;;;;;20.00;18.07;;;15.10;54.10;;;;;;5034056;28;20204;-42
2021/05/02 07:27:50;;;;;;;20.40;18.30;;;15.10;53.50;;;;;;5032829;28;20531;-41
2021/05/02 07:30:17;;;;;;;20.10;18.20;;;15.10;53.70;;;;;;5033758;28;20483;-41
2021/05/02 07:32:42;;;;;;;21.33;19.07;;;15.10;53.60;;;;;;5033304;28;20522;-42
2021/05/02 07:35:08;;;;;;;17.77;16.07;;;15.20;53.60;;;;;;5040783;28;20553;-41
2021/05/02 07:37:34;;;;;;;20.53;18.33;;;15.20;52.60;;;;;;5043502;28;20248;-41
2021/05/02 07:40:00;;;;;;;18.90;17.03;;;15.20;52.70;;;;;;5033913;28;20494;-41
2021/05/02 07:42:26;;;;;;;20.37;18.37;;;15.20;53.80;;;;;;5031274;28;20208;-41
2021/05/02 07:44:52;;;;;;;22.20;19.90;;;15.30;54.00;;;;;;5033887;28;20211;-42
2021/05/02 07:47:19;;;;;;;21.10;19.00;;;15.40;54.20;;;;;;5032550;28;20439;-41
2021/05/02 07:49:44;;;;;;;19.37;17.37;;;15.40;53.50;;;;;;5032918;28;20999;-41
2021/05/02 07:52:10;;;;;;;19.30;17.50;;;15.40;53.00;;;;;;5051908;28;20470;-41
2021/05/02 07:54:35;;;;;;;19.57;17.47;;;15.40;53.30;;;;;;5037613;28;20570;-41
2021/05/02 07:57:02;;;;;;;21.43;16.10;;;15.20;52.40;;;;;;5032410;28;20648;-41
2021/05/02 07:59:28;;;;;;;17.23;15.43;;;15.20;53.30;;;;;;5033221;28;20275;-42
2021/05/02 08:01:53;;;;;;;18.07;16.37;;;15.20;52.90;;;;;;5038846;28;20519;-41
2021/05/02 08:04:19;;;;;;;16.57;14.87;;;15.30;52.60;;;;;;5033277;28;20196;-41
2021/05/02 08:06:44;;;;;;;17.40;15.80;;;15.20;52.50;;;;;;5037043;28;20308;-41
2021/05/02 08:09:10;;;;;;;15.90;14.50;;;15.40;52.40;;;;;;5050927;28;20197;-42
2021/05/02 08:11:37;;;;;;;16.60;15.17;;;15.40;52.60;;;;;;5051664;28;20236;-42
2021/05/02 08:14:02;;;;;;;17.53;15.53;;;15.20;52.00;;;;;;5049122;28;20208;-41
2021/05/02 08:16:28;;;;;;;18.17;16.37;;;15.00;52.70;;;;;;5032150;28;20420;-42
2021/05/02 08:18:55;;;;;;;16.00;14.50;;;15.20;53.20;;;;;;5032928;28;20653;-41
2021/05/02 08:21:22;;;;;;;17.57;15.87;;;15.40;52.90;;;;;;5034297;28;20219;-41
2021/05/02 08:23:48;;;;;;;17.30;15.70;;;15.40;52.80;;;;;;5034278;28;20455;-41
2021/05/02 08:26:14;;;;;;;17.10;15.37;;;15.50;52.40;;;;;;5032843;28;20518;-42
2021/05/02 08:28:40;;;;;;;22.13;15.23;;;15.40;51.70;;;;;;5031534;28;20420;-41
2021/05/02 08:31:05;;;;;;;18.00;16.40;;;15.60;51.90;;;;;;5032788;28;20243;-42
2021/05/02 08:33:31;;;;;;;17.00;15.20;;;15.80;52.00;;;;;;5032401;28;20208;-42
2021/05/02 08:35:56;;;;;;;17.00;15.30;;;16.00;51.30;;;;;;5045152;28;20260;-41
2021/05/02 08:38:22;;;;;;;16.80;15.30;;;16.10;51.50;;;;;;5035494;28;20193;-41
2021/05/02 08:40:47;;;;;;;15.47;14.07;;;16.00;50.30;;;;;;5032939;28;20190;-41
2021/05/02 08:43:15;;;;;;;17.30;15.50;;;16.20;50.30;;;;;;5035813;28;20276;-41
2021/05/02 08:45:40;;;;;;;17.30;15.80;;;16.10;49.00;;;;;;5032356;28;20296;-42
2021/05/02 08:48:06;;;;;;;19.30;15.80;;;16.00;49.80;;;;;;5047616;28;20877;-42
2021/05/02 08:50:32;;;;;;;16.33;14.83;;;16.00;49.30;;;;;;5032302;28;20236;-42
2021/05/02 08:52:58;;;;;;;16.43;14.73;;;16.00;49.40;;;;;;5033035;28;20602;-42
2021/05/02 08:55:24;;;;;;;17.67;15.80;;;15.90;50.20;;;;;;5051991;28;20435;-42
2021/05/02 08:57:49;;;;;;;16.30;14.80;;;15.80;49.80;;;;;;5051222;28;20447;-42
2021/05/02 09:00:15;;;;;;;16.50;14.90;;;15.80;49.50;;;;;;5051906;28;20214;-41
2021/05/02 09:02:53;;;;;;;16.80;15.30;;;15.70;50.20;;;;;;5049179;28;20220;-42
2021/05/02 09:05:19;;;;;;;15.60;14.03;;;15.90;49.30;;;;;;5050266;28;20188;-42
2021/05/02 09:07:48;;;;;;;17.33;15.73;;;15.90;48.50;;;;;;5041047;28;20434;-42
2021/05/02 09:10:15;;;;;;;16.33;14.73;;;15.90;48.40;;;;;;5051587;28;20263;-42
2021/05/02 09:12:43;;;;;;;16.80;15.40;;;16.10;48.50;;;;;;5051230;28;20433;-42
2021/05/02 09:15:19;;;;;;;16.87;15.27;;;16.20;47.60;;;;;;5048924;28;20458;-44
2021/05/02 09:17:50;;;;;;;17.33;15.73;;;16.20;48.70;;;;;;5047624;28;20470;-42
2021/05/02 09:20:38;;;;;;;17.57;15.00;;;16.40;49.10;;;;;;5044229;28;20462;-43
2021/05/02 09:23:04;;;;;;;17.20;15.50;;;16.50;49.30;;;;;;5042177;28;20804;-44
2021/05/02 09:25:44;;;;;;;16.37;14.70;;;16.50;47.50;;;;;;5048781;28;20457;-42
2021/05/02 09:28:10;;;;;;;16.10;14.60;;;16.60;48.10;;;;;;5045119;28;20199;-42
2021/05/02 09:30:35;;;;;;;15.57;13.80;;;16.70;46.70;;;;;;5048853;28;20581;-42
2021/05/02 09:33:01;;;;;;;16.17;14.63;;;16.90;46.10;;;;;;5048841;28;20250;-42
2021/05/02 09:35:29;;;;;;;15.77;14.10;;;16.80;44.60;;;;;;5049566;28;20319;-42
2021/05/02 09:38:13;;;;;;;17.63;14.87;;;16.70;44.70;;;;;;5047539;28;20188;-43
2021/05/02 09:40:53;;;;;;;16.43;14.73;;;16.70;43.70;;;;;;5043637;28;20444;-42
2021/05/02 09:43:28;;;;;;;16.27;14.63;;;17.00;46.00;;;;;;5039427;28;20815;-43
2021/05/02 09:46:33;;;;;;;17.03;15.13;;;17.00;45.20;;;;;;5038979;28;20910;-42
2021/05/02 09:49:07;;;;;;;15.60;14.30;;;17.10;45.30;;;;;;5045617;28;20907;-42
2021/05/02 09:51:33;;;;;;;15.80;14.47;;;17.10;44.10;;;;;;5045616;28;20490;-42
2021/05/02 09:54:02;;;;;;;15.43;14.00;;;17.00;45.00;;;;;;5047934;28;20431;-43
2021/05/02 09:56:35;;;;;;;17.57;15.17;;;17.10;45.90;;;;;;5045561;28;20289;-43
2021/05/02 09:59:01;;;;;;;16.57;14.77;;;17.40;45.00;;;;;;5050790;28;20560;-42
2021/05/02 10:01:27;;;;;;;16.17;14.03;;;17.50;43.70;;;;;;5050040;28;20457;-42
2021/05/02 10:03:53;;;;;;;15.10;13.70;;;17.60;42.90;;;;;;5046148;28;20518;-42
2021/05/02 10:06:33;;;;;;;16.80;15.40;;;17.60;43.50;;;;;;5045120;28;20245;-43
2021/05/02 10:09:00;;;;;;;15.97;14.57;;;17.90;44.50;;;;;;5049945;28;20504;-42
2021/05/02 10:11:27;;;;;;;16.53;15.03;;;18.00;44.00;;;;;;5041950;28;20563;-42
2021/05/02 10:13:52;;;;;;;15.10;13.80;;;18.20;42.60;;;;;;5051324;28;21237;-43
2021/05/02 10:16:18;;;;;;;15.03;13.60;;;18.30;41.80;;;;;;5045010;28;20439;-42
2021/05/02 10:18:44;;;;;;;16.83;15.20;;;18.50;40.90;;;;;;5054063;28;20886;-42
2021/05/02 10:21:10;;;;;;;17.37;15.73;;;18.50;41.20;;;;;;5051489;28;20220;-42
2021/05/02 10:23:36;;;;;;;17.10;15.60;;;18.60;40.30;;;;;;5044102;28;20475;-43
2021/05/02 10:26:05;;;;;;;15.83;14.43;;;18.70;39.40;;;;;;5043671;28;21006;-42
2021/05/02 10:28:33;;;;;;;15.40;14.10;;;18.60;40.30;;;;;;5045906;28;20451;-42
2021/05/02 10:31:01;;;;;;;17.17;15.63;;;18.60;41.40;;;;;;5053163;28;20977;-43
2021/05/02 10:33:34;;;;;;;17.47;15.77;;;18.50;39.30;;;;;;5051695;28;20438;-43
2021/05/02 10:36:05;;;;;;;16.53;15.13;;;18.00;38.60;;;;;;5049777;28;20517;-44
2021/05/02 10:38:57;;;;;;;16.50;15.00;;;17.80;39.20;;;;;;5049402;28;20546;-43
2021/05/02 10:41:37;;;;;;;15.53;14.13;;;17.60;39.80;;;;;;5053824;28;20454;-42
2021/05/02 10:44:12;;;;;;;16.93;15.23;;;17.40;40.50;;;;;;5052066;28;20463;-42
2021/05/02 10:46:48;;;;;;;16.40;14.90;;;17.30;40.80;;;;;;5048343;28;20499;-42
2021/05/02 10:49:20;;;;;;;16.87;15.27;;;17.10;41.40;;;;;;5051936;28;20477;-43
2021/05/02 10:51:47;;;;;;;17.97;16.03;;;16.90;41.50;;;;;;5042938;28;20943;-42
2021/05/02 10:54:43;;;;;;;18.83;17.03;;;16.90;41.30;;;;;;5053962;28;20431;-44
2021/05/02 10:57:29;;;;;;;15.50;14.13;;;17.00;41.10;;;;;;5052841;28;20799;-43
2021/05/02 11:00:02;;;;;;;15.80;14.40;;;17.10;41.60;;;;;;5048519;28;20477;-44
2021/05/02 11:02:39;;;;;;;15.87;14.27;;;17.30;42.10;;;;;;5051685;28;20447;-43
2021/05/02 11:05:06;;;;;;;14.80;13.50;;;17.70;40.30;;;;;;5052184;28;20799;-42
2021/05/02 11:07:37;;;;;;;14.83;13.50;;;18.00;39.80;;;;;;5045823;28;20435;-44
2021/05/02 11:10:05;;;;;;;15.40;13.90;;;18.20;38.40;;;;;;5038436;28;20519;-44
2021/05/02 11:12:31;;;;;;;15.43;14.07;;;18.10;38.00;;;;;;5052712;28;20441;-42
2021/05/02 11:14:57;;;;;;;15.20;13.90;;;18.10;37.40;;;;;;5043907;28;20443;-42
2021/05/02 11:17:24;;;;;;;13.80;12.60;;;18.50;40.20;;;;;;5051474;28;20447;-42
2021/05/02 11:19:52;;;;;;;14.33;13.13;;;18.80;38.30;;;;;;5052322;28;20773;-45
2021/05/02 11:22:19;;;;;;;13.77;12.57;;;18.90;37.50;;;;;;5044912;28;20431;-43
2021/05/02 11:24:47;;;;;;;14.17;12.97;;;19.30;39.70;;;;;;5047397;28;20554;-43
2021/05/02 11:27:23;;;;;;;14.80;12.73;;;19.40;36.50;;;;;;5035674;28;20498;-43
2021/05/02 11:32:26;;;;;;;14.47;13.00;;;19.50;35.20;;;;;;5051679;28;20439;-43
2021/05/02 11:34:52;;;;;;;14.30;13.10;;;19.30;36.00;;;;;;5052263;28;20446;-44
2021/05/02 11:37:45;;;;;;;13.83;12.63;;;19.00;36.20;;;;;;5051544;28;20435;-43
2021/05/02 11:40:30;;;;;;;13.57;11.97;;;18.70;37.20;;;;;;5046572;28;20439;-43
2021/05/02 11:43:25;;;;;;;13.67;12.40;;;18.60;37.40;;;;;;5038915;28;20463;-43
2021/05/02 11:45:54;;;;;;;15.03;13.43;;;18.70;36.60;;;;;;5047412;28;20451;-43
2021/05/02 11:48:30;;;;;;;15.73;14.30;;;18.70;38.00;;;;;;5048358;28;20474;-42
2021/05/02 11:51:07;;;;;;;15.37;13.97;;;18.60;38.10;;;;;;5046665;28;20596;-43
2021/05/02 11:53:37;;;;;;;17.57;15.77;;;18.60;38.60;;;;;;5041471;28;20432;-43
2021/05/02 11:56:09;;;;;;;15.80;14.50;;;18.00;40.40;;;;;;5043585;28;20438;-43
2021/05/02 11:58:35;;;;;;;15.47;14.07;;;17.80;42.00;;;;;;5044870;28;20985;-43
2021/05/02 12:01:00;;;;;;;16.77;15.27;;;17.60;42.70;;;;;;5047606;28;20431;-43
2021/05/02 12:03:34;;;;;;;13.80;12.60;;;17.60;43.40;;;;;;5047121;28;20637;-44
2021/05/02 12:06:00;;;;;;;12.10;10.80;;;17.70;43.40;;;;;;5040449;28;20267;-43
2021/05/02 12:08:27;;;;;;;16.13;10.30;;;17.70;42.70;;;;;;5048341;28;20447;-44
2021/05/02 12:10:56;;;;;;;9.30;8.50;;;17.90;42.80;;;;;;5043546;28;20674;-44
2021/05/02 12:13:35;;;;;;;8.23;7.63;;;17.90;42.00;;;;;;5039256;28;20519;-43
2021/05/02 12:16:04;;;;;;;7.87;7.27;;;18.20;41.90;;;;;;5042512;28;20945;-44
2021/05/02 12:18:57;;;;;;;7.67;7.07;;;18.60;41.90;;;;;;5048359;28;20856;-44
2021/05/02 12:21:28;;;;;;;7.07;6.47;;;18.60;39.10;;;;;;5038820;28;20461;-43
2021/05/02 12:24:04;;;;;;;6.97;6.47;;;18.90;39.30;;;;;;5042337;28;20443;-44
2021/05/02 12:26:30;;;;;;;6.63;6.03;;;18.90;37.80;;;;;;5044539;28;20576;-41
2021/05/02 12:28:59;;;;;;;7.50;6.90;;;18.90;38.30;;;;;;5037729;28;20438;-41
2021/05/02 12:31:25;;;;;;;7.30;6.70;;;19.00;38.60;;;;;;5043011;28;20989;-43
2021/05/02 12:33:51;;;;;;;8.30;7.60;;;19.20;40.00;;;;;;5028324;28;20427;-45
2021/05/02 12:36:18;;;;;;;8.90;8.13;;;19.50;37.70;;;;;;5046912;28;20608;-44
2021/05/02 12:38:44;;;;;;;9.23;8.53;;;19.70;38.10;;;;;;5041411;28;20201;-44